sensor_id;sensor_type;location;lat;lon;timestamp;pressure;altitude;pressure_sealevel;temperature;humidity
20015;BME280;61787;42.022;23.078;2023-12-20T00:00:14;97330.81;;;1.18;100.00
20015;BME280;61787;42.022;23.078;2023-12-20T00:01:16;97327.66;;;1.16;100.00
20015;BME280;61787;42.022;23.078;2023-12-20T00:02:17;97328.47;;;1.22;100.00
20015;BME280;61787;42.022;23.078;2023-12-20T00:03:19;97330.06;;;1.28;100.00
20015;BME280;61787;42.022;23.078;2023-12-20T00:04:21;97330.88;;;1.39;100.00
20015;BME280;61787;42.022;23.078;2023-12-20T00:05:22;97331.41;;;1.46;100.00
20015;BME280;61787;42.022;23.078;2023-12-20T00:06:24;97335.66;;;1.52;100.00
20015;BME280;61787;42.022;23.078;2023-12-20T00:07:26;97335.13;;;1.55;100.00
20015;BME280;61787;42.022;23.078;2023-12-20T00:08:27;97336.22;;;1.59;100.00
20015;BME280;61787;42.022;23.078;2023-12-20T00:09:29;97332.00;;;1.63;100.00
20015;BME280;61787;42.022;23.078;2023-12-20T00:10:31;97333.03;;;1.67;100.00
20015;BME280;61787;42.022;23.078;2023-12-20T00:11:32;97334.09;;;1.71;100.00
20015;BME280;61787;42.022;23.078;2023-12-20T00:12:34;97328.81;;;1.76;100.00
20015;BME280;61787;42.022;23.078;2023-12-20T00:13:35;97329.38;;;1.78;100.00
20015;BME280;61787;42.022;23.078;2023-12-20T00:14:37;97329.88;;;1.80;100.00
20015;BME280;61787;42.022;23.078;2023-12-20T00:15:39;97330.94;;;1.79;100.00
20015;BME280;61787;42.022;23.078;2023-12-20T00:16:40;97324.31;;;1.77;100.00
20015;BME280;61787;42.022;23.078;2023-12-20T00:17:42;97328.31;;;1.74;100.00
20015;BME280;61787;42.022;23.078;2023-12-20T00:18:44;97321.44;;;1.73;100.00
20015;BME280;61787;42.022;23.078;2023-12-20T00:19:46;97327.50;;;1.74;100.00
20015;BME280;61787;42.022;23.078;2023-12-20T00:20:47;97323.00;;;1.64;100.00
20015;BME280;61787;42.022;23.078;2023-12-20T00:21:49;97329.84;;;1.55;100.00
20015;BME280;61787;42.022;23.078;2023-12-20T00:22:51;97320.88;;;1.56;100.00
20015;BME280;61787;42.022;23.078;2023-12-20T00:23:52;97320.88;;;1.56;100.00
20015;BME280;61787;42.022;23.078;2023-12-20T00:24:54;97321.94;;;1.60;100.00
20015;BME280;61787;42.022;23.078;2023-12-20T00:25:55;97312.94;;;1.61;100.00
20015;BME280;61787;42.022;23.078;2023-12-20T00:26:57;97316.13;;;1.63;100.00
20015;BME280;61787;42.022;23.078;2023-12-20T00:27:59;97312.94;;;1.61;100.00
20015;BME280;61787;42.022;23.078;2023-12-20T00:29:01;97317.72;;;1.64;100.00
20015;BME280;61787;42.022;23.078;2023-12-20T00:30:02;97319.56;;;1.68;100.00
20015;BME280;61787;42.022;23.078;2023-12-20T00:31:04;97316.94;;;1.74;100.00
20015;BME280;61787;42.022;23.078;2023-12-20T00:32:07;97320.38;;;1.69;100.00
20015;BME280;61787;42.022;23.078;2023-12-20T00:33:08;97313.50;;;1.68;100.00
20015;BME280;61787;42.022;23.078;2023-12-20T00:34:10;97307.66;;;1.71;100.00
20015;BME280;61787;42.022;23.078;2023-12-20T00:35:16;97316.41;;;1.77;100.00
20015;BME280;61787;42.022;23.078;2023-12-20T00:36:17;97307.66;;;1.81;100.00
20015;BME280;61787;42.022;23.078;2023-12-20T00:37:19;97307.94;;;1.85;100.00
20015;BME280;61787;42.022;23.078;2023-12-20T00:38:20;97304.22;;;1.86;100.00
20015;BME280;61787;42.022;23.078;2023-12-20T00:39:22;97309.00;;;1.89;100.00
20015;BME280;61787;42.022;23.078;2023-12-20T00:40:24;97306.63;;;1.92;100.00
20015;BME280;61787;42.022;23.078;2023-12-20T00:41:26;97308.72;;;1.95;100.00
20015;BME280;61787;42.022;23.078;2023-12-20T00:42:27;97310.31;;;1.96;100.00
20015;BME280;61787;42.022;23.078;2023-12-20T00:43:29;97306.88;;;2.01;100.00
20015;BME280;61787;42.022;23.078;2023-12-20T00:44:30;97303.44;;;1.95;100.00
20015;BME280;61787;42.022;23.078;2023-12-20T00:45:32;97308.72;;;1.90;100.00
20015;BME280;61787;42.022;23.078;2023-12-20T00:46:34;97300.28;;;1.93;100.00
20015;BME280;61787;42.022;23.078;2023-12-20T00:47:35;97306.63;;;1.97;100.00
20015;BME280;61787;42.022;23.078;2023-12-20T00:48:37;97301.59;;;2.01;100.00
20015;BME280;61787;42.022;23.078;2023-12-20T00:49:39;97302.38;;;2.01;100.00
20015;BME280;61787;42.022;23.078;2023-12-20T00:50:40;97294.19;;;2.03;100.00
20015;BME280;61787;42.022;23.078;2023-12-20T00:51:42;97305.03;;;2.06;100.00
20015;BME280;61787;42.022;23.078;2023-12-20T00:52:44;97304.50;;;2.09;100.00
20015;BME280;61787;42.022;23.078;2023-12-20T00:53:45;97298.66;;;2.12;100.00
20015;BME280;61787;42.022;23.078;2023-12-20T00:54:50;97301.84;;;2.14;100.00
20015;BME280;61787;42.022;23.078;2023-12-20T00:55:52;97294.97;;;2.13;100.00
20015;BME280;61787;42.022;23.078;2023-12-20T00:56:54;97291.28;;;2.04;100.00
20015;BME280;61787;42.022;23.078;2023-12-20T00:57:56;97291.81;;;2.01;100.00
20015;BME280;61787;42.022;23.078;2023-12-20T00:58:57;97290.22;;;1.95;100.00
20015;BME280;61787;42.022;23.078;2023-12-20T00:59:59;97288.38;;;1.96;100.00
20015;BME280;61787;42.022;23.078;2023-12-20T01:01:01;97294.19;;;1.98;100.00
20015;BME280;61787;42.022;23.078;2023-12-20T01:02:03;97290.75;;;2.02;100.00
20015;BME280;61787;42.022;23.078;2023-12-20T01:03:04;97291.78;;;2.06;100.00
20015;BME280;61787;42.022;23.078;2023-12-20T01:04:06;97283.34;;;2.09;100.00
20015;BME280;61787;42.022;23.078;2023-12-20T01:05:08;97287.28;;;2.12;100.00
20015;BME280;61787;42.022;23.078;2023-12-20T01:06:10;97278.06;;;2.09;100.00
20015;BME280;61787;42.022;23.078;2023-12-20T01:07:12;97272.22;;;2.07;100.00
20015;BME280;61787;42.022;23.078;2023-12-20T01:08:14;97270.13;;;2.04;100.00
20015;BME280;61787;42.022;23.078;2023-12-20T01:09:15;97276.97;;;2.05;100.00
20015;BME280;61787;42.022;23.078;2023-12-20T01:10:17;97276.97;;;2.05;100.00
20015;BME280;61787;42.022;23.078;2023-12-20T01:11:19;97274.88;;;2.02;100.00
20015;BME280;61787;42.022;23.078;2023-12-20T01:12:20;97268.78;;;2.02;100.00
20015;BME280;61787;42.022;23.078;2023-12-20T01:13:22;97276.47;;;1.98;100.00
20015;BME280;61787;42.022;23.078;2023-12-20T01:14:23;97266.69;;;1.94;100.00
20015;BME280;61787;42.022;23.078;2023-12-20T01:15:25;97268.56;;;1.93;100.00
20015;BME280;61787;42.022;23.078;2023-12-20T01:16:27;97263.25;;;1.93;100.00
20015;BME280;61787;42.022;23.078;2023-12-20T01:17:28;97267.50;;;1.79;100.00
20015;BME280;61787;42.022;23.078;2023-12-20T01:18:30;97265.13;;;1.67;100.00
20015;BME280;61787;42.022;23.078;2023-12-20T01:19:32;97261.69;;;1.62;100.00
20015;BME280;61787;42.022;23.078;2023-12-20T01:20:34;97266.44;;;1.55;100.00
20015;BME280;61787;42.022;23.078;2023-12-20T01:21:35;97268.00;;;1.51;100.00
20015;BME280;61787;42.022;23.078;2023-12-20T01:22:37;97263.28;;;1.53;100.00
20015;BME280;61787;42.022;23.078;2023-12-20T01:23:39;97258.00;;;1.53;100.00
20015;BME280;61787;42.022;23.078;2023-12-20T01:24:40;97259.56;;;1.49;100.00
20015;BME280;61787;42.022;23.078;2023-12-20T01:25:42;97261.13;;;1.45;100.00
20015;BME280;61787;42.022;23.078;2023-12-20T01:26:44;97255.34;;;1.38;100.00
20015;BME280;61787;42.022;23.078;2023-12-20T01:27:46;97260.06;;;1.31;100.00
20015;BME280;61787;42.022;23.078;2023-12-20T01:28:48;97256.38;;;1.21;100.00
20015;BME280;61787;42.022;23.078;2023-12-20T01:29:50;97259.78;;;1.17;100.00
20015;BME280;61787;42.022;23.078;2023-12-20T01:30:51;97263.72;;;1.14;100.00
20015;BME280;61787;42.022;23.078;2023-12-20T01:31:54;97253.16;;;1.14;100.00
20015;BME280;61787;42.022;23.078;2023-12-20T01:32:55;97257.91;;;1.02;100.00
20015;BME280;61787;42.022;23.078;2023-12-20T01:33:57;97250.50;;;1.04;100.00
20015;BME280;61787;42.022;23.078;2023-12-20T01:34:59;97250.50;;;1.04;100.00
20015;BME280;61787;42.022;23.078;2023-12-20T01:36:04;97247.88;;;1.09;100.00
20015;BME280;61787;42.022;23.078;2023-12-20T01:37:05;97238.38;;;1.13;100.00
20015;BME280;61787;42.022;23.078;2023-12-20T01:38:07;97239.72;;;1.21;100.00
20015;BME280;61787;42.022;23.078;2023-12-20T01:39:09;97239.47;;;1.27;100.00
20015;BME280;61787;42.022;23.078;2023-12-20T01:40:25;97228.91;;;1.27;100.00
20015;BME280;61787;42.022;23.078;2023-12-20T01:41:27;97235.00;;;1.28;100.00
20015;BME280;61787;42.022;23.078;2023-12-20T01:42:29;97231.00;;;1.20;100.00
20015;BME280;61787;42.022;23.078;2023-12-20T01:43:30;97232.84;;;1.20;100.00
20015;BME280;61787;42.022;23.078;2023-12-20T01:44:41;97224.66;;;1.11;100.00
20015;BME280;61787;42.022;23.078;2023-12-20T01:45:42;97223.59;;;1.07;100.00
20015;BME280;61787;42.022;23.078;2023-12-20T01:46:45;97228.88;;;1.07;100.00
20015;BME280;61787;42.022;23.078;2023-12-20T01:47:47;97226.22;;;1.02;100.00
20015;BME280;61787;42.022;23.078;2023-12-20T01:48:49;97229.38;;;0.99;100.00
20015;BME280;61787;42.022;23.078;2023-12-20T01:49:50;97224.34;;;1.03;100.00
20015;BME280;61787;42.022;23.078;2023-12-20T01:50:53;97220.41;;;1.05;100.00
20015;BME280;61787;42.022;23.078;2023-12-20T01:51:55;97221.47;;;1.04;100.00
20015;BME280;61787;42.022;23.078;2023-12-20T01:53:02;97222.50;;;0.93;100.00
20015;BME280;61787;42.022;23.078;2023-12-20T01:54:04;97216.69;;;0.86;100.00
20015;BME280;61787;42.022;23.078;2023-12-20T01:55:06;97221.69;;;0.82;100.00
20015;BME280;61787;42.022;23.078;2023-12-20T01:56:15;97214.03;;;0.86;100.00
20015;BME280;61787;42.022;23.078;2023-12-20T01:57:17;97205.09;;;0.92;100.00
20015;BME280;61787;42.022;23.078;2023-12-20T01:58:21;97210.91;;;1.04;100.00
20015;BME280;61787;42.022;23.078;2023-12-20T01:59:23;97206.16;;;1.06;100.00
20015;BME280;61787;42.022;23.078;2023-12-20T02:00:26;97204.03;;;1.08;100.00
20015;BME280;61787;42.022;23.078;2023-12-20T02:01:29;97202.75;;;1.11;100.00
20015;BME280;61787;42.022;23.078;2023-12-20T02:02:31;97199.03;;;1.12;100.00
20015;BME280;61787;42.022;23.078;2023-12-20T02:03:33;97203.53;;;1.11;100.00
20015;BME280;61787;42.022;23.078;2023-12-20T02:04:38;97202.19;;;1.14;100.00
20015;BME280;61787;42.022;23.078;2023-12-20T02:05:40;97204.59;;;1.15;100.00
20015;BME280;61787;42.022;23.078;2023-12-20T02:06:42;97200.34;;;1.19;100.00
20015;BME280;61787;42.022;23.078;2023-12-20T02:07:45;97203.53;;;1.21;100.00
20015;BME280;61787;42.022;23.078;2023-12-20T02:08:47;97194.56;;;1.22;100.00
20015;BME280;61787;42.022;23.078;2023-12-20T02:09:50;97200.88;;;1.06;100.00
20015;BME280;61787;42.022;23.078;2023-12-20T02:10:51;97193.44;;;0.83;100.00
20015;BME280;61787;42.022;23.078;2023-12-20T02:11:54;97192.59;;;0.67;100.00
20015;BME280;61787;42.022;23.078;2023-12-20T02:12:55;97188.84;;;0.48;100.00
20015;BME280;61787;42.022;23.078;2023-12-20T02:13:57;97185.13;;;0.39;100.00
20015;BME280;61787;42.022;23.078;2023-12-20T02:14:59;97185.63;;;0.36;100.00
20015;BME280;61787;42.022;23.078;2023-12-20T02:16:00;97179.50;;;0.15;100.00
20015;BME280;61787;42.022;23.078;2023-12-20T02:17:02;97171.53;;;0.00;100.00
20015;BME280;61787;42.022;23.078;2023-12-20T02:18:04;97178.66;;;-0.01;100.00
20015;BME280;61787;42.022;23.078;2023-12-20T02:19:13;97174.38;;;-0.12;100.00
20015;BME280;61787;42.022;23.078;2023-12-20T02:20:16;97181.94;;;-0.20;100.00
20015;BME280;61787;42.022;23.078;2023-12-20T02:21:18;97181.66;;;-0.24;100.00
20015;BME280;61787;42.022;23.078;2023-12-20T02:22:20;97178.25;;;-0.19;100.00
20015;BME280;61787;42.022;23.078;2023-12-20T02:23:21;97175.13;;;-0.16;100.00
20015;BME280;61787;42.022;23.078;2023-12-20T02:24:23;97178.25;;;-0.19;100.00
20015;BME280;61787;42.022;23.078;2023-12-20T02:25:25;97174.63;;;-0.08;100.00
20015;BME280;61787;42.022;23.078;2023-12-20T02:26:26;97173.41;;;0.05;100.00
20015;BME280;61787;42.022;23.078;2023-12-20T02:27:29;97172.88;;;0.08;100.00
20015;BME280;61787;42.022;23.078;2023-12-20T02:28:31;97173.94;;;0.12;100.00
20015;BME280;61787;42.022;23.078;2023-12-20T02:29:34;97172.06;;;0.07;100.00
20015;BME280;61787;42.022;23.078;2023-12-20T02:30:36;97168.97;;;0.15;100.00
20015;BME280;61787;42.022;23.078;2023-12-20T02:31:38;97167.41;;;0.24;100.00
20015;BME280;61787;42.022;23.078;2023-12-20T02:32:40;97174.03;;;0.32;100.00
20015;BME280;61787;42.022;23.078;2023-12-20T02:33:41;97167.22;;;0.41;100.00
20015;BME280;61787;42.022;23.078;2023-12-20T02:34:44;97160.38;;;0.50;100.00
20015;BME280;61787;42.022;23.078;2023-12-20T02:35:45;97162.50;;;0.58;100.00
20015;BME280;61787;42.022;23.078;2023-12-20T02:36:47;97161.47;;;0.64;100.00
20015;BME280;61787;42.022;23.078;2023-12-20T02:37:49;97161.22;;;0.71;100.00
20015;BME280;61787;42.022;23.078;2023-12-20T02:38:50;97156.22;;;0.74;100.00
20015;BME280;61787;42.022;23.078;2023-12-20T02:39:52;97157.00;;;0.75;100.00
20015;BME280;61787;42.022;23.078;2023-12-20T02:40:54;97153.84;;;0.78;100.00
20015;BME280;61787;42.022;23.078;2023-12-20T02:41:55;97152.28;;;0.82;100.00
20015;BME280;61787;42.022;23.078;2023-12-20T02:42:57;97148.56;;;0.88;100.00
20015;BME280;61787;42.022;23.078;2023-12-20T02:44:00;97148.31;;;0.90;100.00
20015;BME280;61787;42.022;23.078;2023-12-20T02:45:01;97140.16;;;0.91;100.00
20015;BME280;61787;42.022;23.078;2023-12-20T02:46:03;97149.66;;;0.97;100.00
20015;BME280;61787;42.022;23.078;2023-12-20T02:47:05;97146.22;;;1.02;100.00
20015;BME280;61787;42.022;23.078;2023-12-20T02:48:07;97150.44;;;1.08;100.00
20015;BME280;61787;42.022;23.078;2023-12-20T02:49:08;97155.22;;;1.11;100.00
20015;BME280;61787;42.022;23.078;2023-12-20T02:50:10;97150.47;;;1.13;100.00
20015;BME280;61787;42.022;23.078;2023-12-20T02:51:12;97151.22;;;1.18;100.00
20015;BME280;61787;42.022;23.078;2023-12-20T02:52:14;97143.31;;;1.23;100.00
20015;BME280;61787;42.022;23.078;2023-12-20T02:53:15;97139.63;;;1.24;100.00
20015;BME280;61787;42.022;23.078;2023-12-20T02:54:17;97133.81;;;1.27;100.00
20015;BME280;61787;42.022;23.078;2023-12-20T02:55:19;97134.88;;;1.32;100.00
20015;BME280;61787;42.022;23.078;2023-12-20T02:56:21;97131.97;;;1.38;100.00
20015;BME280;61787;42.022;23.078;2023-12-20T02:57:22;97138.56;;;1.41;100.00
20015;BME280;61787;42.022;23.078;2023-12-20T02:58:24;97137.50;;;1.37;100.00
20015;BME280;61787;42.022;23.078;2023-12-20T02:59:26;97132.47;;;1.35;100.00
20015;BME280;61787;42.022;23.078;2023-12-20T03:00:27;97132.22;;;1.37;100.00
20015;BME280;61787;42.022;23.078;2023-12-20T03:01:29;97132.22;;;1.37;100.00
20015;BME280;61787;42.022;23.078;2023-12-20T03:02:31;97132.72;;;1.39;100.00
20015;BME280;61787;42.022;23.078;2023-12-20T03:03:33;97131.69;;;1.40;100.00
20015;BME280;61787;42.022;23.078;2023-12-20T03:04:34;97138.56;;;1.41;100.00
20015;BME280;61787;42.022;23.078;2023-12-20T03:05:36;97131.97;;;1.43;100.00
20015;BME280;61787;42.022;23.078;2023-12-20T03:06:38;97132.72;;;1.44;100.00
20015;BME280;61787;42.022;23.078;2023-12-20T03:07:40;97120.06;;;1.46;100.00
20015;BME280;61787;42.022;23.078;2023-12-20T03:08:42;97121.09;;;1.45;100.00
20015;BME280;61787;42.022;23.078;2023-12-20T03:09:43;97125.88;;;1.43;100.00
20015;BME280;61787;42.022;23.078;2023-12-20T03:11:05;97126.38;;;1.45;100.00
20015;BME280;61787;42.022;23.078;2023-12-20T03:12:06;97124.03;;;1.48;100.00
20015;BME280;61787;42.022;23.078;2023-12-20T03:13:08;97127.97;;;1.51;100.00
20015;BME280;61787;42.022;23.078;2023-12-20T03:14:10;97125.31;;;1.56;100.00
20015;BME280;61787;42.022;23.078;2023-12-20T03:15:12;97129.00;;;1.60;100.00
20015;BME280;61787;42.022;23.078;2023-12-20T03:16:13;97126.66;;;1.63;100.00
20015;BME280;61787;42.022;23.078;2023-12-20T03:17:17;97125.56;;;1.59;100.00
20015;BME280;61787;42.022;23.078;2023-12-20T03:18:20;97125.56;;;1.59;100.00
20015;BME280;61787;42.022;23.078;2023-12-20T03:19:21;97120.56;;;1.58;100.00
20015;BME280;61787;42.022;23.078;2023-12-20T03:20:23;97118.44;;;1.55;100.00
20015;BME280;61787;42.022;23.078;2023-12-20T03:21:25;97114.50;;;1.52;100.00
20015;BME280;61787;42.022;23.078;2023-12-20T03:22:26;97115.03;;;1.44;100.00
20015;BME280;61787;42.022;23.078;2023-12-20T03:23:29;97117.97;;;1.38;100.00
20015;BME280;61787;42.022;23.078;2023-12-20T03:24:31;97117.97;;;1.27;100.00
20015;BME280;61787;42.022;23.078;2023-12-20T03:25:33;97122.72;;;1.25;100.00
20015;BME280;61787;42.022;23.078;2023-12-20T03:26:35;97113.22;;;1.09;100.00
20015;BME280;61787;42.022;23.078;2023-12-20T03:27:37;97115.84;;;0.79;100.00
20015;BME280;61787;42.022;23.078;2023-12-20T03:28:40;97123.97;;;0.47;100.00
20015;BME280;61787;42.022;23.078;2023-12-20T03:29:42;97124.50;;;0.44;100.00
20015;BME280;61787;42.022;23.078;2023-12-20T03:30:43;97123.44;;;0.40;100.00
20015;BME280;61787;42.022;23.078;2023-12-20T03:31:45;97124.72;;;0.37;100.00
20015;BME280;61787;42.022;23.078;2023-12-20T03:32:47;97120.50;;;0.41;100.00
20015;BME280;61787;42.022;23.078;2023-12-20T03:33:48;97117.38;;;0.45;100.00
20015;BME280;61787;42.022;23.078;2023-12-20T03:34:50;97118.94;;;0.40;100.00
20015;BME280;61787;42.022;23.078;2023-12-20T03:35:52;97113.13;;;0.33;100.00
20015;BME280;61787;42.022;23.078;2023-12-20T03:36:54;97111.47;;;0.17;100.00
20015;BME280;61787;42.022;23.078;2023-12-20T03:37:56;97112.78;;;0.10;100.00
20015;BME280;61787;42.022;23.078;2023-12-20T03:38:58;97118.00;;;-0.06;100.00
20015;BME280;61787;42.022;23.078;2023-12-20T03:40:00;97115.59;;;-0.12;100.00
20015;BME280;61787;42.022;23.078;2023-12-20T03:41:02;97119.50;;;-0.20;100.00
20015;BME280;61787;42.022;23.078;2023-12-20T03:42:04;97118.94;;;-0.27;100.00
20015;BME280;61787;42.022;23.078;2023-12-20T03:43:05;97119.97;;;-0.33;100.00
20015;BME280;61787;42.022;23.078;2023-12-20T03:44:07;97116.25;;;-0.42;100.00
20015;BME280;61787;42.022;23.078;2023-12-20T03:45:09;97120.97;;;-0.39;100.00
20015;BME280;61787;42.022;23.078;2023-12-20T03:46:10;97127.56;;;-0.41;100.00
20015;BME280;61787;42.022;23.078;2023-12-20T03:47:13;97115.72;;;-0.39;100.00
20015;BME280;61787;42.022;23.078;2023-12-20T03:48:14;97112.38;;;-0.24;100.00
20015;BME280;61787;42.022;23.078;2023-12-20T03:49:16;97120.34;;;-0.09;100.00
20015;BME280;61787;42.022;23.078;2023-12-20T03:50:18;97113.03;;;0.03;100.00
20015;BME280;61787;42.022;23.078;2023-12-20T03:51:20;97117.00;;;0.16;100.00
20015;BME280;61787;42.022;23.078;2023-12-20T03:52:22;97113.34;;;0.22;100.00
20015;BME280;61787;42.022;23.078;2023-12-20T03:53:23;97114.72;;;0.34;100.00
20015;BME280;61787;42.022;23.078;2023-12-20T03:54:25;97117.34;;;0.29;100.00
20015;BME280;61787;42.022;23.078;2023-12-20T03:55:27;97115.50;;;0.35;100.00
20015;BME280;61787;42.022;23.078;2023-12-20T03:56:29;97112.88;;;0.40;100.00
20015;BME280;61787;42.022;23.078;2023-12-20T03:57:31;97110.53;;;0.49;100.00
20015;BME280;61787;42.022;23.078;2023-12-20T03:58:32;97117.41;;;0.55;100.00
20015;BME280;61787;42.022;23.078;2023-12-20T03:59:37;97113.19;;;0.59;100.00
20015;BME280;61787;42.022;23.078;2023-12-20T04:00:39;97125.31;;;0.65;100.00
20015;BME280;61787;42.022;23.078;2023-12-20T04:01:43;97112.16;;;0.70;100.00
20015;BME280;61787;42.022;23.078;2023-12-20T04:02:46;97099.47;;;0.72;100.00
20015;BME280;61787;42.022;23.078;2023-12-20T04:03:48;97105.03;;;0.70;100.00
20015;BME280;61787;42.022;23.078;2023-12-20T04:04:49;97104.75;;;0.72;100.00
20015;BME280;61787;42.022;23.078;2023-12-20T04:05:51;97099.22;;;0.78;100.00
20015;BME280;61787;42.022;23.078;2023-12-20T04:06:53;97101.59;;;0.85;100.00
20015;BME280;61787;42.022;23.078;2023-12-20T04:07:54;97099.75;;;0.85;100.00
20015;BME280;61787;42.022;23.078;2023-12-20T04:08:56;97100.81;;;0.90;100.00
20015;BME280;61787;42.022;23.078;2023-12-20T04:09:58;97101.84;;;0.94;100.00
20015;BME280;61787;42.022;23.078;2023-12-20T04:11:00;97100.81;;;0.90;100.00
20015;BME280;61787;42.022;23.078;2023-12-20T04:12:02;97095.28;;;0.91;100.00
20015;BME280;61787;42.022;23.078;2023-12-20T04:13:04;97101.06;;;0.93;100.00
20015;BME280;61787;42.022;23.078;2023-12-20T04:14:06;97097.91;;;0.96;100.00
20015;BME280;61787;42.022;23.078;2023-12-20T04:15:09;97096.06;;;1.02;100.00
20015;BME280;61787;42.022;23.078;2023-12-20T04:16:11;97096.88;;;1.07;100.00
20015;BME280;61787;42.022;23.078;2023-12-20T04:17:13;97098.97;;;1.15;100.00
20015;BME280;61787;42.022;23.078;2023-12-20T04:18:17;97097.09;;;1.21;100.00
20015;BME280;61787;42.022;23.078;2023-12-20T04:19:19;97092.34;;;1.28;100.00
20015;BME280;61787;42.022;23.078;2023-12-20T04:20:20;97088.91;;;1.33;100.00
20015;BME280;61787;42.022;23.078;2023-12-20T04:21:22;97086.78;;;1.35;100.00
20015;BME280;61787;42.022;23.078;2023-12-20T04:22:24;97083.88;;;1.31;100.00
20015;BME280;61787;42.022;23.078;2023-12-20T04:23:25;97083.63;;;1.27;100.00
20015;BME280;61787;42.022;23.078;2023-12-20T04:24:27;97081.50;;;1.24;100.00
20015;BME280;61787;42.022;23.078;2023-12-20T04:25:28;97078.88;;;1.24;100.00
20015;BME280;61787;42.022;23.078;2023-12-20T04:26:30;97076.22;;;1.24;100.00
20015;BME280;61787;42.022;23.078;2023-12-20T04:27:32;97088.38;;;1.25;100.00
20015;BME280;61787;42.022;23.078;2023-12-20T04:28:34;97079.16;;;1.28;100.00
20015;BME280;61787;42.022;23.078;2023-12-20T04:29:35;97072.53;;;1.25;100.00
20015;BME280;61787;42.022;23.078;2023-12-20T04:30:37;97074.13;;;1.26;100.00
20015;BME280;61787;42.022;23.078;2023-12-20T04:31:39;97073.59;;;1.29;100.00
20015;BME280;61787;42.022;23.078;2023-12-20T04:32:40;97078.06;;;1.29;100.00
20015;BME280;61787;42.022;23.078;2023-12-20T04:33:42;97077.28;;;1.28;100.00
20015;BME280;61787;42.022;23.078;2023-12-20T04:34:44;97079.16;;;1.23;100.00
20015;BME280;61787;42.022;23.078;2023-12-20T04:35:45;97073.09;;;1.22;100.00
20015;BME280;61787;42.022;23.078;2023-12-20T04:36:47;97065.94;;;1.23;100.00
20015;BME280;61787;42.022;23.078;2023-12-20T04:37:49;97068.03;;;1.26;100.00
20015;BME280;61787;42.022;23.078;2023-12-20T04:38:51;97071.50;;;1.26;100.00
20015;BME280;61787;42.022;23.078;2023-12-20T04:39:52;97071.50;;;1.26;100.00
20015;BME280;61787;42.022;23.078;2023-12-20T04:40:54;97069.88;;;1.31;100.00
20015;BME280;61787;42.022;23.078;2023-12-20T04:41:56;97070.94;;;1.35;100.00
20015;BME280;61787;42.022;23.078;2023-12-20T04:42:57;97067.25;;;1.36;100.00
20015;BME280;61787;42.022;23.078;2023-12-20T04:43:59;97064.06;;;1.34;100.00
20015;BME280;61787;42.022;23.078;2023-12-20T04:45:02;97069.34;;;1.34;100.00
20015;BME280;61787;42.022;23.078;2023-12-20T04:46:04;97061.69;;;1.37;100.00
20015;BME280;61787;42.022;23.078;2023-12-20T04:47:06;97062.19;;;1.39;100.00
20015;BME280;61787;42.022;23.078;2023-12-20T04:48:08;97063.53;;;1.42;100.00
20015;BME280;61787;42.022;23.078;2023-12-20T04:49:09;97062.75;;;1.41;100.00
20015;BME280;61787;42.022;23.078;2023-12-20T04:50:11;97064.59;;;1.41;100.00
20015;BME280;61787;42.022;23.078;2023-12-20T04:51:15;97064.84;;;1.34;100.00
20015;BME280;61787;42.022;23.078;2023-12-20T04:52:16;97052.47;;;1.24;100.00
20015;BME280;61787;42.022;23.078;2023-12-20T04:53:18;97053.81;;;1.22;100.00
20015;BME280;61787;42.022;23.078;2023-12-20T04:54:20;97057.75;;;1.09;100.00
20015;BME280;61787;42.022;23.078;2023-12-20T04:55:22;97058.31;;;0.96;100.00
20015;BME280;61787;42.022;23.078;2023-12-20T04:56:23;97061.47;;;0.98;100.00
20015;BME280;61787;42.022;23.078;2023-12-20T04:57:25;97059.38;;;1.00;100.00
20015;BME280;61787;42.022;23.078;2023-12-20T04:58:27;97053.81;;;1.07;100.00
20015;BME280;61787;42.022;23.078;2023-12-20T04:59:28;97054.59;;;1.12;100.00
20015;BME280;61787;42.022;23.078;2023-12-20T05:00:30;97053.00;;;1.16;100.00
20015;BME280;61787;42.022;23.078;2023-12-20T05:01:32;97058.03;;;1.23;100.00
20015;BME280;61787;42.022;23.078;2023-12-20T05:02:34;97059.84;;;1.33;100.00
20015;BME280;61787;42.022;23.078;2023-12-20T05:03:35;97055.06;;;1.40;100.00
20015;BME280;61787;42.022;23.078;2023-12-20T05:04:37;97055.59;;;1.42;100.00
20015;BME280;61787;42.022;23.078;2023-12-20T05:05:39;97056.09;;;1.44;100.00
20015;BME280;61787;42.022;23.078;2023-12-20T05:06:40;97053.47;;;1.49;100.00
20015;BME280;61787;42.022;23.078;2023-12-20T05:07:42;97054.22;;;1.54;100.00
20015;BME280;61787;42.022;23.078;2023-12-20T05:08:45;97051.88;;;1.58;100.00
20015;BME280;61787;42.022;23.078;2023-12-20T05:09:47;97056.59;;;1.66;100.00
20015;BME280;61787;42.022;23.078;2023-12-20T05:10:48;97056.81;;;1.69;100.00
20015;BME280;61787;42.022;23.078;2023-12-20T05:11:50;97052.34;;;1.70;100.00
20015;BME280;61787;42.022;23.078;2023-12-20T05:12:52;97058.41;;;1.70;100.00
20015;BME280;61787;42.022;23.078;2023-12-20T05:13:53;97049.69;;;1.75;100.00
20015;BME280;61787;42.022;23.078;2023-12-20T05:14:55;97061.84;;;1.76;100.00
20015;BME280;61787;42.022;23.078;2023-12-20T05:15:57;97062.09;;;1.75;100.00
20015;BME280;61787;42.022;23.078;2023-12-20T05:16:58;97059.19;;;1.76;100.00
20015;BME280;61787;42.022;23.078;2023-12-20T05:18:00;97056.06;;;1.69;100.00
20015;BME280;61787;42.022;23.078;2023-12-20T05:19:02;97056.88;;;1.59;100.00
20015;BME280;61787;42.022;23.078;2023-12-20T05:20:08;97049.22;;;1.58;100.00
20015;BME280;61787;42.022;23.078;2023-12-20T05:21:10;97049.75;;;1.55;100.00
20015;BME280;61787;42.022;23.078;2023-12-20T05:22:12;97052.94;;;1.47;100.00
20015;BME280;61787;42.022;23.078;2023-12-20T05:23:13;97054.81;;;1.36;100.00
20015;BME280;61787;42.022;23.078;2023-12-20T05:24:15;97043.72;;;1.34;100.00